createdAt,value
2022-07-27T00:00:46.458Z,92.81
2022-07-27T00:03:13.043Z,93.01
2022-07-27T00:05:39.796Z,93.57
2022-07-27T00:08:06.832Z,93.18
2022-07-27T00:10:34.814Z,93.98
2022-07-27T00:13:01.617Z,94.97
2022-07-27T00:15:28.223Z,95.17
2022-07-27T00:17:55.500Z,94.75
2022-07-27T00:20:27.013Z,94.63
2022-07-27T00:22:55.053Z,94.85
2022-07-27T00:25:22.959Z,94.75
2022-07-27T00:27:49.900Z,95.37
2022-07-27T00:30:16.685Z,95.77
2022-07-27T00:32:43.285Z,94.77
2022-07-27T00:35:10.292Z,95.34
2022-07-27T00:37:36.857Z,95.84
2022-07-27T00:40:05.158Z,95.42
2022-07-27T00:42:31.538Z,94.82
2022-07-27T00:44:58.227Z,95.45
2022-07-27T00:47:25.187Z,95.32
2022-07-27T00:49:51.696Z,96.03
2022-07-27T00:52:18.734Z,96.14
2022-07-27T00:54:45.767Z,96.78
2022-07-27T00:57:14.209Z,97.06
2022-07-27T00:59:41.081Z,96.66
2022-07-27T01:02:11.984Z,97.29
2022-07-27T01:04:38.815Z,97.29
2022-07-27T01:07:06.833Z,97.36
2022-07-27T01:09:52.710Z,97.47
2022-07-27T01:12:23.313Z,96.04
2022-07-27T01:14:51.207Z,95.27
2022-07-27T01:17:18.145Z,95.65
2022-07-27T01:19:45.255Z,95.59
2022-07-27T01:22:11.863Z,94.73
2022-07-27T01:24:38.758Z,94.43
2022-07-27T01:27:06.471Z,94.53
2022-07-27T01:29:34.428Z,94.59
2022-07-27T01:32:01.201Z,95.46
2022-07-27T01:34:27.902Z,96.20
2022-07-27T01:36:54.459Z,95.27
2022-07-27T01:39:21.363Z,95.35
2022-07-27T01:41:48.023Z,95.05
2022-07-27T01:44:14.604Z,94.50
2022-07-27T01:46:41.306Z,94.49
2022-07-27T01:49:08.238Z,93.96
2022-07-27T01:51:35.068Z,94.03
2022-07-27T01:54:01.583Z,94.54
2022-07-27T01:56:28.135Z,94.75
2022-07-27T01:58:55.333Z,94.13
2022-07-27T02:01:21.936Z,94.14
2022-07-27T02:03:48.520Z,94.14
2022-07-27T02:06:15.026Z,94.17
2022-07-27T02:08:41.623Z,95.27
2022-07-27T02:11:27.043Z,94.49
2022-07-27T02:13:53.566Z,94.91
2022-07-27T02:16:20.227Z,95.64
2022-07-27T02:18:48.716Z,96.25
2022-07-27T02:21:15.882Z,95.96
2022-07-27T02:23:44.518Z,95.81
2022-07-27T02:26:11.282Z,95.21
2022-07-27T02:28:37.777Z,95.65
2022-07-27T02:31:04.774Z,96.84
2022-07-27T02:33:31.386Z,96.18
2022-07-27T02:35:58.114Z,95.21
2022-07-27T02:38:25.701Z,94.63
2022-07-27T02:40:52.200Z,94.43
2022-07-27T02:43:18.801Z,95.88
2022-07-27T02:45:46.507Z,96.22
2022-07-27T02:48:13.435Z,94.70
2022-07-27T02:50:39.926Z,96.47
2022-07-27T02:53:06.448Z,96.00
2022-07-27T02:55:33.032Z,96.83
2022-07-27T02:57:59.532Z,97.44
2022-07-27T03:00:26.039Z,97.28
2022-07-27T03:02:52.588Z,96.59
2022-07-27T03:05:19.286Z,97.03
2022-07-27T03:07:45.891Z,97.05
2022-07-27T03:10:12.483Z,97.77
2022-07-27T03:12:39.015Z,97.12
2022-07-27T03:15:05.895Z,97.70
2022-07-27T03:17:33.034Z,98.54
2022-07-27T03:19:59.866Z,97.17
2022-07-27T03:22:30.588Z,97.30
2022-07-27T03:24:57.325Z,97.17
2022-07-27T03:27:23.807Z,96.36
2022-07-27T03:29:50.365Z,96.71
2022-07-27T03:32:17.018Z,97.39
2022-07-27T03:34:43.641Z,97.69
2022-07-27T03:37:10.142Z,97.05
2022-07-27T03:39:36.728Z,97.66
2022-07-27T03:42:03.934Z,98.11
2022-07-27T03:44:30.554Z,98.03
2022-07-27T03:46:57.073Z,97.69
2022-07-27T03:49:23.900Z,97.74
2022-07-27T03:51:50.611Z,98.07
2022-07-27T03:54:17.924Z,98.71
2022-07-27T03:56:45.173Z,97.76
2022-07-27T03:59:12.073Z,98.39
2022-07-27T04:01:39.108Z,98.77
2022-07-27T04:04:05.756Z,98.19
2022-07-27T04:06:32.246Z,97.54
2022-07-27T04:09:10.539Z,97.47
2022-07-27T04:11:43.638Z,97.42
2022-07-27T04:14:17.062Z,97.25
2022-07-27T04:16:43.572Z,97.93
2022-07-27T04:19:10.383Z,97.69
2022-07-27T04:21:37.964Z,97.21
2022-07-27T04:24:05.093Z,96.64
2022-07-27T04:26:31.554Z,96.36
2022-07-27T04:28:58.106Z,96.58
2022-07-27T04:31:24.688Z,97.39
2022-07-27T04:33:51.315Z,98.10
2022-07-27T04:36:17.882Z,98.03
2022-07-27T04:38:44.457Z,97.62
2022-07-27T04:41:10.927Z,97.41
2022-07-27T04:43:37.448Z,98.22
2022-07-27T04:46:09.475Z,97.97
2022-07-27T04:48:38.672Z,98.16
2022-07-27T04:51:08.002Z,98.26
2022-07-27T04:53:35.869Z,98.04
2022-07-27T04:56:02.385Z,97.88
2022-07-27T04:58:28.871Z,97.59
2022-07-27T05:00:55.457Z,97.81
2022-07-27T05:03:22.001Z,98.06
2022-07-27T05:05:50.129Z,97.73
2022-07-27T05:08:17.960Z,97.45
2022-07-27T05:10:44.512Z,97.33
2022-07-27T05:13:11.223Z,97.26
2022-07-27T05:15:53.973Z,96.85
2022-07-27T05:18:22.224Z,96.32
2022-07-27T05:20:48.773Z,94.72
2022-07-27T05:23:16.978Z,95.14
2022-07-27T05:25:43.501Z,95.06
2022-07-27T05:28:12.169Z,94.94
2022-07-27T05:30:38.668Z,95.39
2022-07-27T05:33:05.223Z,95.09
2022-07-27T05:35:32.212Z,94.44
2022-07-27T05:37:58.726Z,93.72
2022-07-27T05:40:26.442Z,94.33
2022-07-27T05:42:52.962Z,94.97
2022-07-27T05:45:19.509Z,95.00
2022-07-27T05:47:46.037Z,94.46
2022-07-27T05:50:12.599Z,93.94
2022-07-27T05:52:39.081Z,92.93
2022-07-27T05:55:06.313Z,92.01
2022-07-27T05:57:33.334Z,92.22
2022-07-27T06:00:01.471Z,91.86
2022-07-27T06:02:30.172Z,91.26
2022-07-27T06:04:56.681Z,92.44
2022-07-27T06:07:41.971Z,92.86
2022-07-27T06:10:09.475Z,92.54
2022-07-27T06:12:43.349Z,93.22
2022-07-27T06:15:10.777Z,93.16
2022-07-27T06:17:37.815Z,90.16
2022-07-27T06:20:06.271Z,91.40
2022-07-27T06:22:33.063Z,91.10
2022-07-27T06:24:59.592Z,92.13
2022-07-27T06:27:29.487Z,91.71
2022-07-27T06:29:56.287Z,91.10
2022-07-27T06:32:22.825Z,91.34
2022-07-27T06:34:49.542Z,91.27
2022-07-27T06:37:17.021Z,92.20
2022-07-27T06:39:46.745Z,91.51
2022-07-27T06:42:16.083Z,90.82
2022-07-27T06:44:42.573Z,92.36
2022-07-27T06:47:09.226Z,91.88
2022-07-27T06:49:35.736Z,92.02
2022-07-27T06:52:02.369Z,92.29
2022-07-27T06:54:29.078Z,88.88
2022-07-27T06:56:55.542Z,90.04
2022-07-27T06:59:22.031Z,90.59
2022-07-27T07:01:49.062Z,89.35
2022-07-27T07:04:15.955Z,89.46
2022-07-27T07:06:42.539Z,90.92
2022-07-27T07:09:09.341Z,91.46
2022-07-27T07:11:37.451Z,86.23
2022-07-27T07:14:04.204Z,82.27
2022-07-27T07:16:30.793Z,84.74
2022-07-27T07:18:57.270Z,84.68
2022-07-27T07:21:23.748Z,85.85
2022-07-27T07:23:50.329Z,81.73
2022-07-27T07:26:16.855Z,81.34
2022-07-27T07:28:43.422Z,86.33
2022-07-27T07:31:10.112Z,82.65
2022-07-27T07:33:36.711Z,78.27
2022-07-27T07:36:08.808Z,83.72
2022-07-27T07:38:39.551Z,87.80
2022-07-27T07:41:06.087Z,82.90
2022-07-27T07:43:35.513Z,76.67
2022-07-27T07:46:02.368Z,75.83
2022-07-27T07:48:28.864Z,79.50
2022-07-27T07:50:55.548Z,82.15
2022-07-27T07:53:22.903Z,79.67
2022-07-27T07:55:49.554Z,78.83
2022-07-27T07:58:16.125Z,74.63
2022-07-27T08:00:43.811Z,76.63
2022-07-27T08:03:10.614Z,76.99
2022-07-27T08:05:37.640Z,77.32
2022-07-27T08:08:04.474Z,74.13
2022-07-27T08:10:31.061Z,74.78
2022-07-27T08:12:57.774Z,78.30
2022-07-27T08:15:34.875Z,82.98
2022-07-27T08:18:05.844Z,79.60
2022-07-27T08:20:32.841Z,70.71
2022-07-27T08:22:59.376Z,69.52
2022-07-27T08:25:26.042Z,69.72
2022-07-27T08:27:52.544Z,72.92
2022-07-27T08:30:22.001Z,75.52
2022-07-27T08:32:55.078Z,73.91
2022-07-27T08:35:22.601Z,70.23
2022-07-27T08:37:49.292Z,73.23
2022-07-27T08:43:05.198Z,76.51
2022-07-27T08:45:32.492Z,76.15
2022-07-27T08:47:59.028Z,66.72
2022-07-27T08:50:30.612Z,68.54
2022-07-27T08:53:03.440Z,75.29
2022-07-27T08:55:38.530Z,76.68
2022-07-27T08:58:06.011Z,69.27
2022-07-27T09:00:33.738Z,73.68
2022-07-27T09:03:00.436Z,73.06
2022-07-27T09:05:27.536Z,73.08
2022-07-27T09:08:17.443Z,75.96
2022-07-27T09:10:44.538Z,76.23
2022-07-27T09:13:23.390Z,72.51
2022-07-27T09:16:16.925Z,71.43
2022-07-27T09:18:42.150Z,71.98
2022-07-27T09:21:10.437Z,61.63
2022-07-27T09:23:41.636Z,60.87
2022-07-27T09:26:31.970Z,59.79
2022-07-27T09:29:05.364Z,60.40
2022-07-27T09:31:32.978Z,55.03
2022-07-27T09:34:01.320Z,65.06
2022-07-27T09:36:28.341Z,67.28
2022-07-27T09:39:12.857Z,71.01
2022-07-27T09:41:45.994Z,56.07
2022-07-27T09:44:31.321Z,57.01
2022-07-27T09:46:58.871Z,55.39
2022-07-27T09:49:27.495Z,49.45
2022-07-27T09:52:00.189Z,49.60
2022-07-27T09:54:28.371Z,51.64
2022-07-27T09:57:02.916Z,51.85
2022-07-27T09:59:30.045Z,52.58
2022-07-27T10:01:57.043Z,53.21
2022-07-27T10:04:24.784Z,55.27
2022-07-27T10:07:02.929Z,55.04
2022-07-27T10:09:31.542Z,56.94
2022-07-27T10:11:58.474Z,59.58
2022-07-27T10:14:25.708Z,59.20
2022-07-27T10:16:53.124Z,60.55
2022-07-27T10:19:37.047Z,57.05
2022-07-27T10:22:03.794Z,52.66
2022-07-27T10:24:34.062Z,58.19
2022-07-27T10:27:18.230Z,55.03
2022-07-27T10:29:44.751Z,53.98
2022-07-27T10:32:11.380Z,54.77
2022-07-27T10:34:42.364Z,53.01
2022-07-27T10:37:13.898Z,50.71
2022-07-27T10:39:51.514Z,55.62
2022-07-27T10:42:22.170Z,54.32
2022-07-27T10:44:58.673Z,51.19
2022-07-27T10:47:35.251Z,53.16
2022-07-27T10:50:20.355Z,56.65
2022-07-27T10:52:47.723Z,56.28
2022-07-27T10:55:32.696Z,50.88
2022-07-27T10:58:14.415Z,52.84
2022-07-27T11:00:54.615Z,51.22
2022-07-27T11:03:24.271Z,48.50
2022-07-27T11:06:04.807Z,54.05
2022-07-27T11:08:47.745Z,53.11
2022-07-27T11:11:17.892Z,53.26
2022-07-27T11:13:45.087Z,54.11
2022-07-27T11:16:23.956Z,50.85
2022-07-27T11:19:07.236Z,55.18
2022-07-27T11:21:36.223Z,49.86
2022-07-27T11:24:12.022Z,50.37
2022-07-27T11:26:46.967Z,52.99
2022-07-27T11:29:15.966Z,53.48
2022-07-27T11:31:59.515Z,48.86
2022-07-27T11:34:36.306Z,51.34
2022-07-27T11:37:05.825Z,52.37
2022-07-27T11:42:23.249Z,57.31
2022-07-27T11:44:52.742Z,54.47
2022-07-27T11:47:21.937Z,55.54
2022-07-27T11:49:48.633Z,54.58
2022-07-27T11:52:17.366Z,54.43
2022-07-27T11:54:44.021Z,56.88
2022-07-27T11:57:12.823Z,56.14
2022-07-27T11:59:41.269Z,56.60
2022-07-27T12:02:10.185Z,57.02
2022-07-27T12:04:39.247Z,57.79
2022-07-27T12:07:15.340Z,57.96
2022-07-27T12:09:56.958Z,58.92
2022-07-27T12:12:28.116Z,57.99
2022-07-27T12:14:58.362Z,55.20
2022-07-27T12:17:35.951Z,59.35
2022-07-27T12:20:12.635Z,55.83
2022-07-27T12:22:44.700Z,54.95
2022-07-27T12:25:17.417Z,51.30
2022-07-27T12:27:53.241Z,49.63
2022-07-27T12:30:47.330Z,52.86
2022-07-27T12:33:30.221Z,49.41
2022-07-27T12:35:58.286Z,52.86
2022-07-27T12:38:25.224Z,53.31
2022-07-27T12:41:00.984Z,50.02
2022-07-27T12:43:28.645Z,50.33
2022-07-27T12:45:55.656Z,50.04
2022-07-27T12:48:23.378Z,47.92
2022-07-27T12:51:03.151Z,45.79
2022-07-27T12:53:31.634Z,46.80
2022-07-27T12:56:00.375Z,50.01
2022-07-27T12:58:27.164Z,50.72
2022-07-27T13:00:54.755Z,52.88
2022-07-27T13:03:21.703Z,54.35
2022-07-27T13:05:48.797Z,48.71
2022-07-27T13:08:16.790Z,52.52
2022-07-27T13:10:44.641Z,51.62
2022-07-27T13:13:11.419Z,51.19
2022-07-27T13:15:38.075Z,50.71
2022-07-27T13:18:04.747Z,48.24
2022-07-27T13:20:31.974Z,48.24
2022-07-27T13:22:58.571Z,48.42
2022-07-27T13:25:25.144Z,47.01
2022-07-27T13:27:52.404Z,45.07
2022-07-27T13:30:19.754Z,46.07
2022-07-27T13:32:47.171Z,45.39
2022-07-27T13:35:14.036Z,45.43
2022-07-27T13:37:41.223Z,47.08
2022-07-27T13:40:09.120Z,42.96
2022-07-27T13:42:35.898Z,42.89
2022-07-27T13:45:09.304Z,49.01
2022-07-27T13:47:37.754Z,51.05
2022-07-27T13:50:05.211Z,52.42
2022-07-27T13:52:31.900Z,48.93
2022-07-27T13:54:58.507Z,49.49
2022-07-27T13:57:25.035Z,50.49
2022-07-27T13:59:51.904Z,50.91
2022-07-27T14:02:20.485Z,51.62
2022-07-27T14:04:52.005Z,46.59
2022-07-27T14:07:18.668Z,52.88
2022-07-27T14:10:03.862Z,58.72
2022-07-27T14:12:30.536Z,51.13
2022-07-27T14:14:57.301Z,52.42
2022-07-27T14:17:23.887Z,51.68
2022-07-27T14:19:50.367Z,50.34
2022-07-27T14:22:16.948Z,49.91
2022-07-27T14:24:43.538Z,49.88
2022-07-27T14:27:10.206Z,51.86
2022-07-27T14:29:36.824Z,51.29
2022-07-27T14:32:03.574Z,53.05
2022-07-27T14:34:30.183Z,46.73
2022-07-27T14:36:56.933Z,51.30
2022-07-27T14:39:23.558Z,53.32
2022-07-27T14:41:50.185Z,54.54
2022-07-27T14:44:18.989Z,52.51
2022-07-27T14:46:46.400Z,52.17
2022-07-27T14:49:14.921Z,52.84
2022-07-27T14:51:41.563Z,51.32
2022-07-27T14:54:08.328Z,55.15
2022-07-27T14:56:36.536Z,52.40
2022-07-27T14:59:04.455Z,51.78
2022-07-27T15:01:31.805Z,52.71
2022-07-27T15:03:58.540Z,54.08
2022-07-27T15:06:25.182Z,55.16
2022-07-27T15:08:51.898Z,54.72
2022-07-27T15:11:18.540Z,54.83
2022-07-27T15:13:45.641Z,56.57
2022-07-27T15:16:12.438Z,57.73
2022-07-27T15:18:39.268Z,57.97
2022-07-27T15:21:10.921Z,57.68
2022-07-27T15:23:41.366Z,56.69
2022-07-27T15:26:07.944Z,56.36
2022-07-27T15:28:35.131Z,56.98
2022-07-27T15:31:01.802Z,57.46
2022-07-27T15:33:28.425Z,58.15
2022-07-27T15:35:55.147Z,60.94
2022-07-27T15:38:21.996Z,59.07
2022-07-27T15:40:48.543Z,58.84
2022-07-27T15:43:17.133Z,57.92
2022-07-27T15:45:48.303Z,58.46
2022-07-27T15:48:16.551Z,65.87
2022-07-27T15:50:44.741Z,63.64
2022-07-27T15:53:11.652Z,64.80
2022-07-27T15:55:38.632Z,67.44
2022-07-27T15:58:06.188Z,66.68
2022-07-27T16:00:38.647Z,67.13
2022-07-27T16:03:06.419Z,67.61
2022-07-27T16:05:33.141Z,68.25
2022-07-27T16:07:59.684Z,68.18
2022-07-27T16:10:27.447Z,67.16
2022-07-27T16:12:54.034Z,66.51
2022-07-27T16:15:40.582Z,65.03
2022-07-27T16:18:08.416Z,64.26
2022-07-27T16:20:34.982Z,65.17
2022-07-27T16:23:01.705Z,67.07
2022-07-27T16:26:02.525Z,68.36
2022-07-27T16:28:30.731Z,68.22
2022-07-27T16:30:57.982Z,68.91
2022-07-27T16:33:24.938Z,69.79
2022-07-27T16:35:51.590Z,72.42
2022-07-27T16:38:18.633Z,70.72
2022-07-27T16:40:45.255Z,70.83
2022-07-27T16:43:11.794Z,66.22
2022-07-27T16:45:38.457Z,65.20
2022-07-27T16:48:05.181Z,63.31
2022-07-27T16:50:31.887Z,59.75
2022-07-27T16:52:58.570Z,62.06
2022-07-27T16:55:27.489Z,65.72
2022-07-27T16:57:54.478Z,65.51
2022-07-27T17:00:21.524Z,64.35
2022-07-27T17:02:48.179Z,64.25
2022-07-27T17:05:14.711Z,64.76
2022-07-27T17:07:42.869Z,64.17
2022-07-27T17:10:09.617Z,65.12
2022-07-27T17:12:39.164Z,67.72
2022-07-27T17:15:06.765Z,66.84
2022-07-27T17:17:33.368Z,67.83
2022-07-27T17:19:59.979Z,69.78
2022-07-27T17:22:26.509Z,68.53
2022-07-27T17:24:53.068Z,69.12
2022-07-27T17:27:19.654Z,69.98
2022-07-27T17:29:46.294Z,71.61
2022-07-27T17:32:12.940Z,70.90
2022-07-27T17:34:41.514Z,71.03
2022-07-27T17:37:08.216Z,71.65
2022-07-27T17:39:35.479Z,71.80
2022-07-27T17:42:02.103Z,72.16
2022-07-27T17:44:28.873Z,69.19
2022-07-27T17:46:55.631Z,67.88
2022-07-27T17:49:22.386Z,68.08
2022-07-27T17:51:49.020Z,68.64
2022-07-27T17:54:15.546Z,71.25
2022-07-27T17:56:42.090Z,71.27
2022-07-27T17:59:34.746Z,70.85
2022-07-27T18:01:56.737Z,67.55
2022-07-27T18:04:23.422Z,67.51
2022-07-27T18:06:50.105Z,65.78
2022-07-27T18:09:17.390Z,65.97
2022-07-27T18:11:44.721Z,65.08
2022-07-27T18:14:11.362Z,63.77
2022-07-27T18:16:40.591Z,62.50
2022-07-27T18:19:08.049Z,62.74
2022-07-27T18:21:35.609Z,59.23
2022-07-27T18:24:02.511Z,61.60
2022-07-27T18:26:29.146Z,64.02
2022-07-27T18:28:57.618Z,64.11
2022-07-27T18:31:24.631Z,65.36
2022-07-27T18:33:54.315Z,61.30
2022-07-27T18:36:21.461Z,59.49
2022-07-27T18:38:49.954Z,60.80
2022-07-27T18:41:17.640Z,60.84
2022-07-27T18:43:51.083Z,61.26
2022-07-27T18:46:21.794Z,63.87
2022-07-27T18:48:48.968Z,62.42
2022-07-27T18:51:16.052Z,62.01
2022-07-27T18:53:44.081Z,62.46
2022-07-27T18:56:11.031Z,62.28
2022-07-27T18:58:37.648Z,61.20
2022-07-27T19:01:04.284Z,62.00
2022-07-27T19:03:30.787Z,63.42
2022-07-27T19:05:58.681Z,63.66
2022-07-27T19:08:25.359Z,63.79
2022-07-27T19:10:52.025Z,62.81
2022-07-27T19:13:18.608Z,64.61
2022-07-27T19:15:45.400Z,66.27
2022-07-27T19:18:12.004Z,66.85
2022-07-27T19:20:38.685Z,68.95
2022-07-27T19:23:06.199Z,69.40
2022-07-27T19:25:33.777Z,69.80
2022-07-27T19:28:00.998Z,71.15
2022-07-27T19:30:27.759Z,70.75
2022-07-27T19:32:54.419Z,69.86
2022-07-27T19:35:21.019Z,69.89
2022-07-27T19:37:47.564Z,71.15
2022-07-27T19:40:42.974Z,70.10
2022-07-27T19:43:00.581Z,71.29
2022-07-27T19:45:27.133Z,72.46
2022-07-27T19:47:53.637Z,72.05
2022-07-27T19:50:20.185Z,73.24
2022-07-27T19:52:46.690Z,73.13
2022-07-27T19:55:13.296Z,71.56
2022-07-27T19:57:39.807Z,71.83
2022-07-27T20:00:08.744Z,70.74
2022-07-27T20:02:35.387Z,70.34
2022-07-27T20:05:01.996Z,70.47
2022-07-27T20:07:28.584Z,70.25
2022-07-27T20:09:55.159Z,70.53
2022-07-27T20:12:21.766Z,69.62
2022-07-27T20:14:48.244Z,69.95
2022-07-27T20:17:14.851Z,70.48
2022-07-27T20:19:41.308Z,68.97
2022-07-27T20:22:07.796Z,69.81
2022-07-27T20:24:34.332Z,70.12
2022-07-27T20:27:00.918Z,69.30
2022-07-27T20:29:31.670Z,67.86
2022-07-27T20:31:59.877Z,69.09
2022-07-27T20:34:26.402Z,69.95
2022-07-27T20:36:54.555Z,70.72
2022-07-27T20:39:21.235Z,71.41
2022-07-27T20:41:47.949Z,72.52
2022-07-27T20:44:14.443Z,72.75
2022-07-27T20:46:40.962Z,74.46
2022-07-27T20:49:07.505Z,73.78
2022-07-27T20:51:34.334Z,73.88
2022-07-27T20:54:00.925Z,74.03
2022-07-27T20:56:27.424Z,73.86
2022-07-27T20:58:53.943Z,73.83
2022-07-27T21:01:20.527Z,74.51
2022-07-27T21:03:47.106Z,73.29
2022-07-27T21:06:13.593Z,73.01
2022-07-27T21:08:45.961Z,73.45
2022-07-27T21:11:13.624Z,75.73
2022-07-27T21:13:40.334Z,76.19
2022-07-27T21:16:06.977Z,76.45
2022-07-27T21:18:33.594Z,77.22
2022-07-27T21:21:00.143Z,76.83
2022-07-27T21:23:45.201Z,76.24
2022-07-27T21:26:11.706Z,75.82
2022-07-27T21:28:42.003Z,76.29
2022-07-27T21:31:08.830Z,77.89
2022-07-27T21:33:39.575Z,78.23
2022-07-27T21:36:06.832Z,78.02
2022-07-27T21:38:33.327Z,78.13
2022-07-27T21:40:59.863Z,78.80
2022-07-27T21:43:26.348Z,78.46
2022-07-27T21:45:52.910Z,78.67
2022-07-27T21:48:19.417Z,78.80
2022-07-27T21:50:45.947Z,77.88
2022-07-27T21:53:12.499Z,78.05
2022-07-27T21:55:40.909Z,79.05
2022-07-27T21:58:08.294Z,78.65
2022-07-27T22:00:34.820Z,78.24
2022-07-27T22:03:01.307Z,78.92
2022-07-27T22:05:27.876Z,78.72
2022-07-27T22:07:54.376Z,79.72
2022-07-27T22:10:20.992Z,78.97
2022-07-27T22:12:47.496Z,80.10
2022-07-27T22:15:14.076Z,80.44
2022-07-27T22:17:50.225Z,80.17
2022-07-27T22:20:18.353Z,80.47
2022-07-27T22:22:45.000Z,81.34
2022-07-27T22:25:11.539Z,80.32
2022-07-27T22:27:38.106Z,80.41
2022-07-27T22:30:05.651Z,80.09
2022-07-27T22:32:32.144Z,80.72
2022-07-27T22:34:58.720Z,80.12
2022-07-27T22:37:25.637Z,81.26
2022-07-27T22:39:52.275Z,79.90
2022-07-27T22:42:18.957Z,79.02
2022-07-27T22:44:45.549Z,78.84
2022-07-27T22:47:12.428Z,80.64
2022-07-27T22:49:38.979Z,81.08
2022-07-27T22:52:05.845Z,81.09
2022-07-27T22:54:36.647Z,82.05
2022-07-27T22:57:04.272Z,82.04
2022-07-27T22:59:30.934Z,81.88
2022-07-27T23:01:57.588Z,81.80
2022-07-27T23:04:24.274Z,81.01
2022-07-27T23:06:51.016Z,80.02
2022-07-27T23:09:17.713Z,80.10
2022-07-27T23:11:44.681Z,81.43
2022-07-27T23:14:12.373Z,80.92
2022-07-27T23:16:39.380Z,80.84
2022-07-27T23:19:05.973Z,80.63
2022-07-27T23:21:32.550Z,80.69
2022-07-27T23:23:59.019Z,81.00
2022-07-27T23:26:26.265Z,81.31
2022-07-27T23:28:53.612Z,81.19
2022-07-27T23:31:20.235Z,82.48
2022-07-27T23:33:47.037Z,82.94
2022-07-27T23:36:13.667Z,83.17
2022-07-27T23:38:40.162Z,82.68
2022-07-27T23:41:06.678Z,82.93
2022-07-27T23:43:33.252Z,83.34
2022-07-27T23:45:59.814Z,82.17
2022-07-27T23:48:26.331Z,80.92
2022-07-27T23:50:56.015Z,81.08
2022-07-27T23:53:22.660Z,82.81
2022-07-27T23:55:49.155Z,81.96
2022-07-27T23:58:15.649Z,81.46
